sensor_id;sensor_type;location;lat;lon;timestamp;P1;durP1;ratioP1;P2;durP2;ratioP2
21727;SDS011;11026;50.560;17.852;2024-02-15T00:00:37;31.90;;;19.55;;
21727;SDS011;11026;50.560;17.852;2024-02-15T00:03:04;29.63;;;18.00;;
21727;SDS011;11026;50.560;17.852;2024-02-15T00:05:34;31.33;;;18.33;;
21727;SDS011;11026;50.560;17.852;2024-02-15T00:08:03;29.33;;;17.95;;
21727;SDS011;11026;50.560;17.852;2024-02-15T00:10:31;27.40;;;17.67;;
21727;SDS011;11026;50.560;17.852;2024-02-15T00:12:59;29.33;;;17.33;;
21727;SDS011;11026;50.560;17.852;2024-02-15T00:15:27;28.05;;;17.92;;
21727;SDS011;11026;50.560;17.852;2024-02-15T00:17:55;30.17;;;18.23;;
21727;SDS011;11026;50.560;17.852;2024-02-15T00:20:24;28.85;;;18.65;;
21727;SDS011;11026;50.560;17.852;2024-02-15T00:22:53;32.00;;;18.65;;
21727;SDS011;11026;50.560;17.852;2024-02-15T00:25:22;33.60;;;19.65;;
21727;SDS011;11026;50.560;17.852;2024-02-15T00:27:51;29.70;;;18.85;;
21727;SDS011;11026;50.560;17.852;2024-02-15T00:32:48;31.80;;;19.83;;
21727;SDS011;11026;50.560;17.852;2024-02-15T00:35:16;31.92;;;19.40;;
21727;SDS011;11026;50.560;17.852;2024-02-15T00:37:45;28.42;;;18.60;;
21727;SDS011;11026;50.560;17.852;2024-02-15T00:40:12;29.25;;;18.35;;
21727;SDS011;11026;50.560;17.852;2024-02-15T00:42:40;28.60;;;17.45;;
21727;SDS011;11026;50.560;17.852;2024-02-15T00:45:07;25.98;;;16.50;;
21727;SDS011;11026;50.560;17.852;2024-02-15T00:47:38;32.47;;;18.67;;
21727;SDS011;11026;50.560;17.852;2024-02-15T00:50:06;33.33;;;18.58;;
21727;SDS011;11026;50.560;17.852;2024-02-15T00:52:34;27.63;;;18.10;;
21727;SDS011;11026;50.560;17.852;2024-02-15T00:55:01;31.70;;;18.40;;
21727;SDS011;11026;50.560;17.852;2024-02-15T00:57:27;30.25;;;18.73;;
21727;SDS011;11026;50.560;17.852;2024-02-15T00:59:57;29.98;;;18.30;;
21727;SDS011;11026;50.560;17.852;2024-02-15T01:02:26;29.13;;;18.60;;
21727;SDS011;11026;50.560;17.852;2024-02-15T01:04:54;28.67;;;18.65;;
21727;SDS011;11026;50.560;17.852;2024-02-15T01:07:24;28.75;;;17.95;;
21727;SDS011;11026;50.560;17.852;2024-02-15T01:09:56;31.73;;;18.88;;
21727;SDS011;11026;50.560;17.852;2024-02-15T01:12:25;30.90;;;19.35;;
21727;SDS011;11026;50.560;17.852;2024-02-15T01:14:51;32.97;;;18.85;;
21727;SDS011;11026;50.560;17.852;2024-02-15T01:17:20;28.52;;;18.63;;
21727;SDS011;11026;50.560;17.852;2024-02-15T01:19:47;29.35;;;18.52;;
21727;SDS011;11026;50.560;17.852;2024-02-15T01:22:15;31.15;;;19.13;;
21727;SDS011;11026;50.560;17.852;2024-02-15T01:24:43;30.67;;;19.45;;
21727;SDS011;11026;50.560;17.852;2024-02-15T01:27:10;27.33;;;18.60;;
21727;SDS011;11026;50.560;17.852;2024-02-15T01:29:37;29.05;;;18.13;;
21727;SDS011;11026;50.560;17.852;2024-02-15T01:32:05;28.48;;;18.60;;
21727;SDS011;11026;50.560;17.852;2024-02-15T01:34:34;32.50;;;20.75;;
21727;SDS011;11026;50.560;17.852;2024-02-15T01:37:02;30.45;;;18.77;;
21727;SDS011;11026;50.560;17.852;2024-02-15T01:39:29;26.00;;;17.67;;
21727;SDS011;11026;50.560;17.852;2024-02-15T01:41:57;31.02;;;19.33;;
21727;SDS011;11026;50.560;17.852;2024-02-15T01:44:26;30.63;;;19.50;;
21727;SDS011;11026;50.560;17.852;2024-02-15T01:46:54;33.70;;;20.60;;
21727;SDS011;11026;50.560;17.852;2024-02-15T01:49:22;33.88;;;20.52;;
21727;SDS011;11026;50.560;17.852;2024-02-15T01:51:50;36.25;;;21.02;;
21727;SDS011;11026;50.560;17.852;2024-02-15T01:54:20;33.72;;;20.65;;
21727;SDS011;11026;50.560;17.852;2024-02-15T01:56:48;38.90;;;22.20;;
21727;SDS011;11026;50.560;17.852;2024-02-15T01:59:16;37.90;;;22.27;;
21727;SDS011;11026;50.560;17.852;2024-02-15T02:01:43;38.85;;;22.45;;
21727;SDS011;11026;50.560;17.852;2024-02-15T02:04:11;34.28;;;20.67;;
21727;SDS011;11026;50.560;17.852;2024-02-15T02:06:39;37.95;;;21.35;;
21727;SDS011;11026;50.560;17.852;2024-02-15T02:09:11;42.03;;;21.60;;
21727;SDS011;11026;50.560;17.852;2024-02-15T02:14:13;53.17;;;25.48;;
21727;SDS011;11026;50.560;17.852;2024-02-15T02:16:40;43.13;;;22.40;;
21727;SDS011;11026;50.560;17.852;2024-02-15T02:19:10;31.42;;;19.95;;
21727;SDS011;11026;50.560;17.852;2024-02-15T02:21:38;29.85;;;20.10;;
21727;SDS011;11026;50.560;17.852;2024-02-15T02:24:12;33.22;;;20.35;;
21727;SDS011;11026;50.560;17.852;2024-02-15T02:26:43;32.13;;;19.73;;
21727;SDS011;11026;50.560;17.852;2024-02-15T02:29:11;32.30;;;20.52;;
21727;SDS011;11026;50.560;17.852;2024-02-15T02:31:41;32.80;;;21.35;;
21727;SDS011;11026;50.560;17.852;2024-02-15T02:34:09;33.28;;;21.70;;
21727;SDS011;11026;50.560;17.852;2024-02-15T02:36:37;33.30;;;21.85;;
21727;SDS011;11026;50.560;17.852;2024-02-15T02:39:06;39.17;;;23.17;;
21727;SDS011;11026;50.560;17.852;2024-02-15T02:41:35;39.08;;;23.08;;
21727;SDS011;11026;50.560;17.852;2024-02-15T02:44:02;48.55;;;26.85;;
21727;SDS011;11026;50.560;17.852;2024-02-15T02:46:30;46.70;;;25.73;;
21727;SDS011;11026;50.560;17.852;2024-02-15T02:48:56;58.13;;;29.65;;
21727;SDS011;11026;50.560;17.852;2024-02-15T02:51:24;65.18;;;33.03;;
21727;SDS011;11026;50.560;17.852;2024-02-15T02:53:51;46.45;;;28.52;;
21727;SDS011;11026;50.560;17.852;2024-02-15T02:56:18;50.42;;;27.98;;
21727;SDS011;11026;50.560;17.852;2024-02-15T02:58:46;55.65;;;30.25;;
21727;SDS011;11026;50.560;17.852;2024-02-15T03:03:44;67.00;;;31.98;;
21727;SDS011;11026;50.560;17.852;2024-02-15T03:06:12;54.42;;;30.15;;
21727;SDS011;11026;50.560;17.852;2024-02-15T03:08:39;61.20;;;31.27;;
21727;SDS011;11026;50.560;17.852;2024-02-15T03:11:07;56.17;;;31.02;;
21727;SDS011;11026;50.560;17.852;2024-02-15T03:13:34;56.08;;;30.42;;
21727;SDS011;11026;50.560;17.852;2024-02-15T03:16:02;51.65;;;28.83;;
21727;SDS011;11026;50.560;17.852;2024-02-15T03:18:32;51.13;;;28.90;;
21727;SDS011;11026;50.560;17.852;2024-02-15T03:21:00;37.28;;;25.00;;
21727;SDS011;11026;50.560;17.852;2024-02-15T03:23:29;38.42;;;24.77;;
21727;SDS011;11026;50.560;17.852;2024-02-15T03:25:56;43.38;;;26.63;;
21727;SDS011;11026;50.560;17.852;2024-02-15T03:28:23;46.08;;;27.77;;
21727;SDS011;11026;50.560;17.852;2024-02-15T03:30:50;40.05;;;24.77;;
21727;SDS011;11026;50.560;17.852;2024-02-15T03:33:18;38.35;;;25.75;;
21727;SDS011;11026;50.560;17.852;2024-02-15T03:35:50;38.00;;;24.60;;
21727;SDS011;11026;50.560;17.852;2024-02-15T03:38:18;41.67;;;25.38;;
21727;SDS011;11026;50.560;17.852;2024-02-15T03:40:46;38.85;;;24.75;;
21727;SDS011;11026;50.560;17.852;2024-02-15T03:43:14;36.30;;;24.67;;
21727;SDS011;11026;50.560;17.852;2024-02-15T03:45:42;38.60;;;24.98;;
21727;SDS011;11026;50.560;17.852;2024-02-15T03:48:11;35.40;;;23.70;;
21727;SDS011;11026;50.560;17.852;2024-02-15T03:50:41;33.83;;;24.10;;
21727;SDS011;11026;50.560;17.852;2024-02-15T03:53:09;36.20;;;23.60;;
21727;SDS011;11026;50.560;17.852;2024-02-15T03:55:39;34.13;;;23.48;;
21727;SDS011;11026;50.560;17.852;2024-02-15T03:58:06;36.63;;;22.77;;
21727;SDS011;11026;50.560;17.852;2024-02-15T04:03:11;38.80;;;24.95;;
21727;SDS011;11026;50.560;17.852;2024-02-15T04:05:40;38.30;;;23.92;;
21727;SDS011;11026;50.560;17.852;2024-02-15T04:08:07;41.35;;;25.60;;
21727;SDS011;11026;50.560;17.852;2024-02-15T04:10:35;42.03;;;25.15;;
21727;SDS011;11026;50.560;17.852;2024-02-15T04:15:33;42.65;;;26.02;;
21727;SDS011;11026;50.560;17.852;2024-02-15T04:18:01;43.70;;;25.85;;
21727;SDS011;11026;50.560;17.852;2024-02-15T04:20:29;48.42;;;27.50;;
21727;SDS011;11026;50.560;17.852;2024-02-15T04:22:56;48.00;;;27.02;;
21727;SDS011;11026;50.560;17.852;2024-02-15T04:25:26;46.70;;;26.17;;
21727;SDS011;11026;50.560;17.852;2024-02-15T04:27:55;48.13;;;27.58;;
21727;SDS011;11026;50.560;17.852;2024-02-15T04:30:24;49.85;;;28.27;;
21727;SDS011;11026;50.560;17.852;2024-02-15T04:32:52;40.47;;;25.08;;
21727;SDS011;11026;50.560;17.852;2024-02-15T04:35:21;39.45;;;23.98;;
21727;SDS011;11026;50.560;17.852;2024-02-15T04:40:20;36.10;;;23.90;;
21727;SDS011;11026;50.560;17.852;2024-02-15T04:42:47;34.28;;;23.75;;
21727;SDS011;11026;50.560;17.852;2024-02-15T04:45:14;36.58;;;23.77;;
21727;SDS011;11026;50.560;17.852;2024-02-15T04:47:44;34.85;;;23.98;;
21727;SDS011;11026;50.560;17.852;2024-02-15T04:50:13;38.90;;;23.70;;
21727;SDS011;11026;50.560;17.852;2024-02-15T04:52:43;37.58;;;23.85;;
21727;SDS011;11026;50.560;17.852;2024-02-15T04:55:13;34.25;;;23.05;;
21727;SDS011;11026;50.560;17.852;2024-02-15T04:57:42;35.85;;;27.05;;
21727;SDS011;11026;50.560;17.852;2024-02-15T05:00:10;37.58;;;25.65;;
21727;SDS011;11026;50.560;17.852;2024-02-15T05:02:40;38.53;;;25.15;;
21727;SDS011;11026;50.560;17.852;2024-02-15T05:05:09;34.50;;;24.38;;
21727;SDS011;11026;50.560;17.852;2024-02-15T05:07:37;35.47;;;24.85;;
21727;SDS011;11026;50.560;17.852;2024-02-15T05:10:07;39.08;;;25.05;;
21727;SDS011;11026;50.560;17.852;2024-02-15T05:12:37;42.20;;;26.40;;
21727;SDS011;11026;50.560;17.852;2024-02-15T05:15:07;39.67;;;25.30;;
21727;SDS011;11026;50.560;17.852;2024-02-15T05:17:40;39.85;;;27.30;;
21727;SDS011;11026;50.560;17.852;2024-02-15T05:20:09;43.92;;;27.92;;
21727;SDS011;11026;50.560;17.852;2024-02-15T05:22:39;41.90;;;26.75;;
21727;SDS011;11026;50.560;17.852;2024-02-15T05:25:15;49.47;;;27.73;;
21727;SDS011;11026;50.560;17.852;2024-02-15T05:27:49;46.25;;;28.65;;
21727;SDS011;11026;50.560;17.852;2024-02-15T05:30:16;51.90;;;29.20;;
21727;SDS011;11026;50.560;17.852;2024-02-15T05:32:44;48.10;;;28.25;;
21727;SDS011;11026;50.560;17.852;2024-02-15T05:35:12;47.78;;;28.55;;
21727;SDS011;11026;50.560;17.852;2024-02-15T05:37:39;48.03;;;27.95;;
21727;SDS011;11026;50.560;17.852;2024-02-15T05:40:06;42.67;;;26.33;;
21727;SDS011;11026;50.560;17.852;2024-02-15T05:42:35;42.38;;;25.77;;
21727;SDS011;11026;50.560;17.852;2024-02-15T05:47:52;36.80;;;25.80;;
21727;SDS011;11026;50.560;17.852;2024-02-15T05:50:20;37.88;;;26.23;;
21727;SDS011;11026;50.560;17.852;2024-02-15T05:52:48;37.72;;;26.92;;
21727;SDS011;11026;50.560;17.852;2024-02-15T05:55:15;40.53;;;27.35;;
21727;SDS011;11026;50.560;17.852;2024-02-15T05:57:45;41.97;;;26.60;;
21727;SDS011;11026;50.560;17.852;2024-02-15T06:00:12;45.25;;;30.48;;
21727;SDS011;11026;50.560;17.852;2024-02-15T06:02:49;48.35;;;30.50;;
21727;SDS011;11026;50.560;17.852;2024-02-15T06:05:17;56.58;;;37.78;;
21727;SDS011;11026;50.560;17.852;2024-02-15T06:07:45;52.65;;;36.72;;
21727;SDS011;11026;50.560;17.852;2024-02-15T06:10:14;51.13;;;35.60;;
21727;SDS011;11026;50.560;17.852;2024-02-15T06:12:42;47.80;;;31.88;;
21727;SDS011;11026;50.560;17.852;2024-02-15T06:15:09;48.92;;;32.03;;
21727;SDS011;11026;50.560;17.852;2024-02-15T06:17:43;46.70;;;29.20;;
21727;SDS011;11026;50.560;17.852;2024-02-15T06:20:15;45.60;;;28.83;;
21727;SDS011;11026;50.560;17.852;2024-02-15T06:25:14;36.47;;;25.52;;
21727;SDS011;11026;50.560;17.852;2024-02-15T06:27:43;35.25;;;27.05;;
21727;SDS011;11026;50.560;17.852;2024-02-15T06:30:11;38.15;;;27.00;;
21727;SDS011;11026;50.560;17.852;2024-02-15T06:32:54;41.35;;;28.45;;
21727;SDS011;11026;50.560;17.852;2024-02-15T06:35:35;39.47;;;27.65;;
21727;SDS011;11026;50.560;17.852;2024-02-15T06:38:17;40.47;;;28.25;;
21727;SDS011;11026;50.560;17.852;2024-02-15T06:40:58;42.72;;;28.38;;
21727;SDS011;11026;50.560;17.852;2024-02-15T06:43:25;45.13;;;29.55;;
21727;SDS011;11026;50.560;17.852;2024-02-15T06:45:52;44.58;;;29.42;;
21727;SDS011;11026;50.560;17.852;2024-02-15T06:48:20;44.30;;;29.10;;
21727;SDS011;11026;50.560;17.852;2024-02-15T06:50:48;46.33;;;29.10;;
21727;SDS011;11026;50.560;17.852;2024-02-15T06:53:15;44.95;;;28.95;;
21727;SDS011;11026;50.560;17.852;2024-02-15T06:55:44;44.83;;;28.80;;
21727;SDS011;11026;50.560;17.852;2024-02-15T06:58:11;41.95;;;28.88;;
21727;SDS011;11026;50.560;17.852;2024-02-15T07:00:40;40.72;;;28.23;;
21727;SDS011;11026;50.560;17.852;2024-02-15T07:03:09;39.53;;;27.40;;
21727;SDS011;11026;50.560;17.852;2024-02-15T07:05:38;39.40;;;26.52;;
21727;SDS011;11026;50.560;17.852;2024-02-15T07:08:05;37.60;;;25.45;;
21727;SDS011;11026;50.560;17.852;2024-02-15T07:10:32;35.30;;;25.55;;
21727;SDS011;11026;50.560;17.852;2024-02-15T07:12:59;35.20;;;25.15;;
21727;SDS011;11026;50.560;17.852;2024-02-15T07:15:26;33.97;;;24.52;;
21727;SDS011;11026;50.560;17.852;2024-02-15T07:17:54;32.63;;;25.10;;
21727;SDS011;11026;50.560;17.852;2024-02-15T07:20:22;35.25;;;25.38;;
21727;SDS011;11026;50.560;17.852;2024-02-15T07:22:51;33.75;;;23.52;;
21727;SDS011;11026;50.560;17.852;2024-02-15T07:25:18;36.60;;;23.55;;
21727;SDS011;11026;50.560;17.852;2024-02-15T07:27:45;36.92;;;24.60;;
21727;SDS011;11026;50.560;17.852;2024-02-15T07:30:13;32.63;;;23.92;;
21727;SDS011;11026;50.560;17.852;2024-02-15T07:32:42;33.28;;;23.48;;
21727;SDS011;11026;50.560;17.852;2024-02-15T07:35:10;33.47;;;23.08;;
21727;SDS011;11026;50.560;17.852;2024-02-15T07:37:39;32.80;;;22.90;;
21727;SDS011;11026;50.560;17.852;2024-02-15T07:40:17;34.28;;;22.27;;
21727;SDS011;11026;50.560;17.852;2024-02-15T07:42:46;32.05;;;22.65;;
21727;SDS011;11026;50.560;17.852;2024-02-15T07:45:13;31.17;;;21.70;;
21727;SDS011;11026;50.560;17.852;2024-02-15T07:47:41;27.70;;;21.05;;
21727;SDS011;11026;50.560;17.852;2024-02-15T07:50:09;33.00;;;22.23;;
21727;SDS011;11026;50.560;17.852;2024-02-15T07:52:39;34.90;;;22.60;;
21727;SDS011;11026;50.560;17.852;2024-02-15T07:55:06;29.77;;;21.38;;
21727;SDS011;11026;50.560;17.852;2024-02-15T07:57:37;31.92;;;21.73;;
21727;SDS011;11026;50.560;17.852;2024-02-15T08:00:06;30.10;;;21.30;;
21727;SDS011;11026;50.560;17.852;2024-02-15T08:02:38;30.30;;;20.60;;
21727;SDS011;11026;50.560;17.852;2024-02-15T08:05:10;35.83;;;20.02;;
21727;SDS011;11026;50.560;17.852;2024-02-15T08:07:45;28.00;;;19.25;;
21727;SDS011;11026;50.560;17.852;2024-02-15T08:10:14;29.05;;;20.20;;
21727;SDS011;11026;50.560;17.852;2024-02-15T08:12:42;27.50;;;19.73;;
21727;SDS011;11026;50.560;17.852;2024-02-15T08:17:41;28.33;;;19.52;;
21727;SDS011;11026;50.560;17.852;2024-02-15T08:20:15;28.57;;;20.30;;
21727;SDS011;11026;50.560;17.852;2024-02-15T08:22:49;25.98;;;18.75;;
21727;SDS011;11026;50.560;17.852;2024-02-15T08:25:17;27.35;;;19.35;;
21727;SDS011;11026;50.560;17.852;2024-02-15T08:27:48;27.55;;;19.77;;
21727;SDS011;11026;50.560;17.852;2024-02-15T08:30:17;28.70;;;18.85;;
21727;SDS011;11026;50.560;17.852;2024-02-15T08:32:51;24.45;;;18.35;;
21727;SDS011;11026;50.560;17.852;2024-02-15T08:35:22;27.55;;;18.58;;
21727;SDS011;11026;50.560;17.852;2024-02-15T08:37:49;27.95;;;18.15;;
21727;SDS011;11026;50.560;17.852;2024-02-15T08:40:19;28.27;;;18.10;;
21727;SDS011;11026;50.560;17.852;2024-02-15T08:42:52;27.13;;;18.35;;
21727;SDS011;11026;50.560;17.852;2024-02-15T08:45:19;27.38;;;17.95;;
21727;SDS011;11026;50.560;17.852;2024-02-15T08:50:20;24.42;;;17.50;;
21727;SDS011;11026;50.560;17.852;2024-02-15T08:55:21;23.27;;;16.33;;
21727;SDS011;11026;50.560;17.852;2024-02-15T08:57:55;28.40;;;16.42;;
21727;SDS011;11026;50.560;17.852;2024-02-15T09:00:22;21.95;;;16.02;;
21727;SDS011;11026;50.560;17.852;2024-02-15T09:02:51;22.73;;;15.40;;
21727;SDS011;11026;50.560;17.852;2024-02-15T09:05:19;19.85;;;14.88;;
21727;SDS011;11026;50.560;17.852;2024-02-15T09:07:48;19.83;;;13.23;;
21727;SDS011;11026;50.560;17.852;2024-02-15T09:10:17;22.35;;;13.80;;
21727;SDS011;11026;50.560;17.852;2024-02-15T09:12:46;19.73;;;13.25;;
21727;SDS011;11026;50.560;17.852;2024-02-15T09:15:16;18.50;;;12.32;;
21727;SDS011;11026;50.560;17.852;2024-02-15T09:17:45;18.13;;;11.85;;
21727;SDS011;11026;50.560;17.852;2024-02-15T09:20:14;15.70;;;12.00;;
21727;SDS011;11026;50.560;17.852;2024-02-15T09:22:50;16.75;;;11.45;;
21727;SDS011;11026;50.560;17.852;2024-02-15T09:25:19;17.63;;;11.45;;
21727;SDS011;11026;50.560;17.852;2024-02-15T09:27:50;15.40;;;10.48;;
21727;SDS011;11026;50.560;17.852;2024-02-15T09:30:19;14.23;;;10.75;;
21727;SDS011;11026;50.560;17.852;2024-02-15T09:32:46;16.90;;;10.95;;
21727;SDS011;11026;50.560;17.852;2024-02-15T09:35:13;12.50;;;9.60;;
21727;SDS011;11026;50.560;17.852;2024-02-15T09:37:45;13.93;;;10.20;;
21727;SDS011;11026;50.560;17.852;2024-02-15T09:40:17;12.15;;;9.75;;
21727;SDS011;11026;50.560;17.852;2024-02-15T09:42:47;13.05;;;9.75;;
21727;SDS011;11026;50.560;17.852;2024-02-15T09:45:15;11.70;;;9.35;;
21727;SDS011;11026;50.560;17.852;2024-02-15T09:47:44;12.80;;;9.65;;
21727;SDS011;11026;50.560;17.852;2024-02-15T09:50:13;13.48;;;9.60;;
21727;SDS011;11026;50.560;17.852;2024-02-15T09:55:23;11.98;;;9.38;;
21727;SDS011;11026;50.560;17.852;2024-02-15T09:57:53;14.07;;;9.43;;
21727;SDS011;11026;50.560;17.852;2024-02-15T10:00:22;14.77;;;9.52;;
21727;SDS011;11026;50.560;17.852;2024-02-15T10:02:50;13.40;;;9.43;;
21727;SDS011;11026;50.560;17.852;2024-02-15T10:05:22;11.68;;;9.23;;
21727;SDS011;11026;50.560;17.852;2024-02-15T10:07:51;11.93;;;8.80;;
21727;SDS011;11026;50.560;17.852;2024-02-15T10:12:55;15.30;;;9.27;;
21727;SDS011;11026;50.560;17.852;2024-02-15T10:17:59;13.93;;;8.85;;
21727;SDS011;11026;50.560;17.852;2024-02-15T10:20:28;13.00;;;8.75;;
21727;SDS011;11026;50.560;17.852;2024-02-15T10:25:28;12.07;;;8.60;;
21727;SDS011;11026;50.560;17.852;2024-02-15T10:28:03;13.52;;;8.65;;
21727;SDS011;11026;50.560;17.852;2024-02-15T10:30:35;12.57;;;9.50;;
21727;SDS011;11026;50.560;17.852;2024-02-15T10:33:06;15.32;;;9.38;;
21727;SDS011;11026;50.560;17.852;2024-02-15T10:35:36;12.73;;;9.02;;
21727;SDS011;11026;50.560;17.852;2024-02-15T10:38:10;13.88;;;9.70;;
21727;SDS011;11026;50.560;17.852;2024-02-15T10:40:44;15.75;;;10.63;;
21727;SDS011;11026;50.560;17.852;2024-02-15T10:43:14;22.55;;;12.88;;
21727;SDS011;11026;50.560;17.852;2024-02-15T10:45:44;18.13;;;13.32;;
21727;SDS011;11026;50.560;17.852;2024-02-15T10:48:12;20.75;;;13.70;;
21727;SDS011;11026;50.560;17.852;2024-02-15T10:50:40;20.98;;;13.70;;
21727;SDS011;11026;50.560;17.852;2024-02-15T10:53:21;21.13;;;14.23;;
21727;SDS011;11026;50.560;17.852;2024-02-15T10:58:40;18.25;;;14.20;;
21727;SDS011;11026;50.560;17.852;2024-02-15T11:01:17;19.63;;;13.95;;
21727;SDS011;11026;50.560;17.852;2024-02-15T11:03:51;20.27;;;14.48;;
21727;SDS011;11026;50.560;17.852;2024-02-15T11:06:24;20.98;;;15.50;;
21727;SDS011;11026;50.560;17.852;2024-02-15T11:08:54;21.33;;;16.13;;
21727;SDS011;11026;50.560;17.852;2024-02-15T11:11:23;23.17;;;16.30;;
21727;SDS011;11026;50.560;17.852;2024-02-15T11:14:09;21.92;;;15.13;;
21727;SDS011;11026;50.560;17.852;2024-02-15T11:16:51;22.38;;;15.70;;
21727;SDS011;11026;50.560;17.852;2024-02-15T11:22:11;24.23;;;15.18;;
21727;SDS011;11026;50.560;17.852;2024-02-15T11:24:49;20.88;;;14.68;;
21727;SDS011;11026;50.560;17.852;2024-02-15T11:27:25;20.90;;;14.88;;
21727;SDS011;11026;50.560;17.852;2024-02-15T11:35:21;17.23;;;14.02;;
21727;SDS011;11026;50.560;17.852;2024-02-15T11:37:56;21.23;;;14.07;;
21727;SDS011;11026;50.560;17.852;2024-02-15T11:43:36;18.80;;;13.55;;
21727;SDS011;11026;50.560;17.852;2024-02-15T11:46:11;16.60;;;12.68;;
21727;SDS011;11026;50.560;17.852;2024-02-15T11:48:43;19.75;;;13.77;;
21727;SDS011;11026;50.560;17.852;2024-02-15T11:51:33;18.75;;;12.73;;
21727;SDS011;11026;50.560;17.852;2024-02-15T11:54:13;19.60;;;12.55;;
21727;SDS011;11026;50.560;17.852;2024-02-15T11:56:51;15.80;;;11.38;;
21727;SDS011;11026;50.560;17.852;2024-02-15T11:59:38;15.55;;;11.52;;
21727;SDS011;11026;50.560;17.852;2024-02-15T12:02:20;14.80;;;10.95;;
21727;SDS011;11026;50.560;17.852;2024-02-15T12:05:03;19.08;;;12.07;;
21727;SDS011;11026;50.560;17.852;2024-02-15T12:08:00;19.23;;;11.52;;
21727;SDS011;11026;50.560;17.852;2024-02-15T12:10:41;16.02;;;11.27;;
21727;SDS011;11026;50.560;17.852;2024-02-15T12:13:22;14.38;;;10.45;;
21727;SDS011;11026;50.560;17.852;2024-02-15T12:16:05;15.57;;;10.73;;
21727;SDS011;11026;50.560;17.852;2024-02-15T12:18:46;15.80;;;10.27;;
21727;SDS011;11026;50.560;17.852;2024-02-15T12:21:16;16.88;;;10.98;;
21727;SDS011;11026;50.560;17.852;2024-02-15T12:23:49;16.05;;;11.40;;
21727;SDS011;11026;50.560;17.852;2024-02-15T12:26:19;22.20;;;12.30;;
21727;SDS011;11026;50.560;17.852;2024-02-15T12:28:53;12.43;;;9.45;;
21727;SDS011;11026;50.560;17.852;2024-02-15T12:31:24;12.25;;;9.35;;
21727;SDS011;11026;50.560;17.852;2024-02-15T12:34:01;12.70;;;9.63;;
21727;SDS011;11026;50.560;17.852;2024-02-15T12:36:35;19.90;;;9.60;;
21727;SDS011;11026;50.560;17.852;2024-02-15T12:41:39;9.63;;;8.00;;
21727;SDS011;11026;50.560;17.852;2024-02-15T12:44:07;10.93;;;7.53;;
21727;SDS011;11026;50.560;17.852;2024-02-15T12:46:34;11.25;;;7.22;;
21727;SDS011;11026;50.560;17.852;2024-02-15T12:49:09;12.70;;;8.45;;
21727;SDS011;11026;50.560;17.852;2024-02-15T12:51:54;13.90;;;7.30;;
21727;SDS011;11026;50.560;17.852;2024-02-15T12:55:17;9.80;;;7.70;;
21727;SDS011;11026;50.560;17.852;2024-02-15T12:57:51;9.82;;;7.63;;
21727;SDS011;11026;50.560;17.852;2024-02-15T13:00:24;10.35;;;7.80;;
21727;SDS011;11026;50.560;17.852;2024-02-15T13:02:57;10.05;;;7.32;;
21727;SDS011;11026;50.560;17.852;2024-02-15T13:05:26;16.83;;;9.85;;
21727;SDS011;11026;50.560;17.852;2024-02-15T13:07:54;10.40;;;7.00;;
21727;SDS011;11026;50.560;17.852;2024-02-15T13:10:22;7.22;;;6.20;;
21727;SDS011;11026;50.560;17.852;2024-02-15T13:12:52;7.22;;;6.30;;
21727;SDS011;11026;50.560;17.852;2024-02-15T13:15:22;7.80;;;5.75;;
21727;SDS011;11026;50.560;17.852;2024-02-15T13:17:54;9.15;;;5.80;;
21727;SDS011;11026;50.560;17.852;2024-02-15T13:20:22;5.97;;;5.38;;
21727;SDS011;11026;50.560;17.852;2024-02-15T13:25:31;7.68;;;5.95;;
21727;SDS011;11026;50.560;17.852;2024-02-15T13:27:59;9.50;;;6.25;;
21727;SDS011;11026;50.560;17.852;2024-02-15T13:30:26;4.13;;;3.33;;
21727;SDS011;11026;50.560;17.852;2024-02-15T13:32:56;8.55;;;3.80;;
21727;SDS011;11026;50.560;17.852;2024-02-15T13:35:38;4.07;;;3.38;;
21727;SDS011;11026;50.560;17.852;2024-02-15T13:38:05;3.63;;;3.20;;
21727;SDS011;11026;50.560;17.852;2024-02-15T13:40:35;5.15;;;4.30;;
21727;SDS011;11026;50.560;17.852;2024-02-15T13:43:02;6.00;;;3.95;;
21727;SDS011;11026;50.560;17.852;2024-02-15T13:45:32;5.50;;;4.07;;
21727;SDS011;11026;50.560;17.852;2024-02-15T13:48:07;6.05;;;3.42;;
21727;SDS011;11026;50.560;17.852;2024-02-15T13:50:37;3.95;;;3.40;;
21727;SDS011;11026;50.560;17.852;2024-02-15T13:55:45;3.42;;;2.97;;
21727;SDS011;11026;50.560;17.852;2024-02-15T13:58:13;4.82;;;3.00;;
21727;SDS011;11026;50.560;17.852;2024-02-15T14:00:40;6.38;;;3.20;;
21727;SDS011;11026;50.560;17.852;2024-02-15T14:03:10;3.78;;;3.00;;
21727;SDS011;11026;50.560;17.852;2024-02-15T14:05:38;5.18;;;3.85;;
21727;SDS011;11026;50.560;17.852;2024-02-15T14:08:09;6.18;;;4.10;;
21727;SDS011;11026;50.560;17.852;2024-02-15T14:10:38;5.50;;;3.83;;
21727;SDS011;11026;50.560;17.852;2024-02-15T14:13:05;4.82;;;3.78;;
21727;SDS011;11026;50.560;17.852;2024-02-15T14:15:35;4.47;;;3.58;;
21727;SDS011;11026;50.560;17.852;2024-02-15T14:18:10;7.50;;;3.53;;
21727;SDS011;11026;50.560;17.852;2024-02-15T14:20:42;7.32;;;4.38;;
21727;SDS011;11026;50.560;17.852;2024-02-15T14:23:11;19.58;;;5.07;;
21727;SDS011;11026;50.560;17.852;2024-02-15T14:25:42;4.97;;;4.47;;
21727;SDS011;11026;50.560;17.852;2024-02-15T14:28:12;8.10;;;4.68;;
21727;SDS011;11026;50.560;17.852;2024-02-15T14:30:42;5.43;;;4.05;;
21727;SDS011;11026;50.560;17.852;2024-02-15T14:33:22;5.20;;;3.95;;
21727;SDS011;11026;50.560;17.852;2024-02-15T14:36:00;6.10;;;4.63;;
21727;SDS011;11026;50.560;17.852;2024-02-15T14:38:28;5.63;;;3.72;;
21727;SDS011;11026;50.560;17.852;2024-02-15T14:40:56;8.07;;;4.28;;
21727;SDS011;11026;50.560;17.852;2024-02-15T14:43:27;6.57;;;3.72;;
21727;SDS011;11026;50.560;17.852;2024-02-15T14:45:55;6.95;;;4.20;;
21727;SDS011;11026;50.560;17.852;2024-02-15T14:50:57;5.22;;;3.60;;
21727;SDS011;11026;50.560;17.852;2024-02-15T14:53:29;4.97;;;3.83;;
21727;SDS011;11026;50.560;17.852;2024-02-15T14:55:57;6.00;;;3.67;;
21727;SDS011;11026;50.560;17.852;2024-02-15T14:58:25;6.10;;;4.20;;
21727;SDS011;11026;50.560;17.852;2024-02-15T15:00:53;7.43;;;4.47;;
21727;SDS011;11026;50.560;17.852;2024-02-15T15:03:24;4.55;;;3.90;;
21727;SDS011;11026;50.560;17.852;2024-02-15T15:05:55;6.50;;;3.95;;
21727;SDS011;11026;50.560;17.852;2024-02-15T15:08:36;6.40;;;4.38;;
21727;SDS011;11026;50.560;17.852;2024-02-15T15:11:19;6.72;;;4.00;;
21727;SDS011;11026;50.560;17.852;2024-02-15T15:14:02;4.68;;;4.03;;
21727;SDS011;11026;50.560;17.852;2024-02-15T15:16:34;6.55;;;3.80;;
21727;SDS011;11026;50.560;17.852;2024-02-15T15:19:01;6.60;;;4.50;;
21727;SDS011;11026;50.560;17.852;2024-02-15T15:21:31;6.55;;;3.80;;
21727;SDS011;11026;50.560;17.852;2024-02-15T15:23:59;6.85;;;3.65;;
21727;SDS011;11026;50.560;17.852;2024-02-15T15:26:26;6.05;;;3.72;;
21727;SDS011;11026;50.560;17.852;2024-02-15T15:28:55;13.88;;;6.60;;
21727;SDS011;11026;50.560;17.852;2024-02-15T15:31:25;8.27;;;6.22;;
21727;SDS011;11026;50.560;17.852;2024-02-15T15:33:55;5.80;;;4.50;;